Flight Track Log - Related Links

Times and Time Zones

All times are in EDT time to prevent confusion due to time zone crossing. See the N147SW flight status page for this flight to view local times or setup timezone preferences in your user account.

Time Position Orientation Groundspeed Altitude Reporting Facility
EDT Latitude Longitude Course Direction KTS MPH feet Rate Location/Type
Wed 06:31:54 AM 27.9000 -82.6833 254° West 175 201 800  Level Tampa TRACON
Wed 06:32:42 AM 27.8833 -82.7500 254° West 261 300 2,700 2,811 Climbing Tampa TRACON
Wed 06:34:49 AM 27.8411 -82.9189 256° West 276 318 9,000 2,759 Climbing Miami Center
Wed 06:35:49 AM 27.8206 -83.0094 262° West 286 329 11,300 1,900 Climbing Miami Center
Wed 06:36:49 AM 27.8078 -83.1119 283° West 306 352 12,800 1,900 Climbing Miami Center
Wed 06:37:49 AM 27.8303 -83.2186 283° West 332 382 15,100 1,800 Climbing Miami Center
Wed 06:40:09 AM 27.8817 -83.4678 283° West 345 397 18,800 1,620 Climbing Jacksonville Center
Wed 06:41:09 AM 27.9039 -83.5806 284° West 364 419 20,500 1,500 Climbing Jacksonville Center
Wed 06:42:09 AM 27.9283 -83.6958 282° West 375 432 21,800 1,350 Climbing Jacksonville Center
Wed 06:43:09 AM 27.9506 -83.8136 283° West 375 432 23,200 1,300 Climbing Jacksonville Center
Wed 06:44:09 AM 27.9747 -83.9311 280° West 381 438 24,400 1,200 Climbing Jacksonville Center
Wed 06:45:09 AM 27.9944 -84.0536 285° West 386 444 25,600 1,250 Climbing Jacksonville Center
Wed 06:46:09 AM 28.0225 -84.1761 280° West 398 458 26,900 1,200 Climbing Jacksonville Center
Wed 06:47:09 AM 28.0422 -84.2986 284° West 398 458 28,000 1,150 Climbing Jacksonville Center
Wed 06:48:09 AM 28.0700 -84.4214 279° West 403 464 29,200 1,000 Climbing Jacksonville Center
Wed 06:49:09 AM 28.0892 -84.5581 281° West 397 457 30,000 1,000 Climbing Jacksonville Center
Wed 06:50:09 AM 28.1103 -84.6786 284° West 397 457 31,200 1,300 Climbing Jacksonville Center
Wed 06:51:09 AM 28.1358 -84.7989 281° West 410 472 32,600 1,250 Climbing Jacksonville Center
Wed 06:52:09 AM 28.1569 -84.9242 283° West 416 479 33,700 1,400 Climbing Jacksonville Center
Wed 06:53:09 AM 28.1800 -85.0353 282° West 395 455 35,400 1,450 Climbing Jacksonville Center
Wed 06:54:09 AM 28.2011 -85.1511 282° West 385 443 36,600 1,050 Climbing Jacksonville Center
Wed 06:55:09 AM 28.2219 -85.2669 282° West 375 432 37,500 900 Climbing Jacksonville Center
Wed 06:56:09 AM 28.2428 -85.3806 281° West 375 432 38,400 800 Climbing Jacksonville Center
Wed 06:57:09 AM 28.2633 -85.4967 283° West 375 432 39,100 800 Climbing Jacksonville Center
Wed 06:58:09 AM 28.2861 -85.6125 280° West 375 432 40,000 450 Climbing Jacksonville Center
Wed 06:59:09 AM 28.3044 -85.7264 281° West 375 432 40,000  Level Jacksonville Center
Wed 07:00:09 AM 28.3267 -85.8542 282° West 383 441 40,000  Level Jacksonville Center
Wed 07:01:09 AM 28.3508 -85.9822 281° West 400 460 40,000  Level Jacksonville Center
Wed 07:02:09 AM 28.3728 -86.1056 281° West 408 470 40,000  Level Jacksonville Center
Wed 07:03:09 AM 28.3964 -86.2408 282° West 420 483 40,000  Level Jacksonville Center
Wed 07:04:09 AM 28.4183 -86.3619 282° West 420 483 40,000  Level Jacksonville Center
Wed 07:05:09 AM 28.4436 -86.4997 281° West 426 490 40,000  Level Jacksonville Center
Wed 07:06:09 AM 28.4650 -86.6303 280° West 426 490 40,000  Level Jacksonville Center
Wed 07:07:09 AM 28.4861 -86.7608 281° West 428 493 40,000  Level Jacksonville Center
Wed 07:08:09 AM 28.5092 -86.8917 281° West 428 493 40,000  Level Jacksonville Center
Wed 07:09:09 AM 28.5322 -87.0250 282° West 428 493 40,000  Level Jacksonville Center
Wed 07:10:53 AM 28.5783 -87.2725 278° West 444 511 40,000  Level Houston Center
Wed 07:11:53 AM 28.5947 -87.3997 280° West 444 511 40,000  Level Houston Center
Wed 07:12:53 AM 28.6156 -87.5314 284° West 438 504 40,000  Level Houston Center
Wed 07:13:53 AM 28.6447 -87.6697 302° West 438 504 40,000  Level Houston Center
Wed 07:14:53 AM 28.7525 -87.8672 228° Southwest 647 745 40,000  Level Houston Center
Wed 07:15:53 AM 28.6942 -87.9403 275° West 515 593 40,000  Level Houston Center
Wed 07:16:53 AM 28.7036 -88.0631 279° West 435 501 40,000  Level Houston Center
Wed 07:17:53 AM 28.7217 -88.1950 281° West 430 495 40,000  Level Houston Center
Wed 07:18:53 AM 28.7436 -88.3247 279° West 425 489 40,000  Level Houston Center
Wed 07:19:53 AM 28.7617 -88.4614 281° West 430 495 40,000  Level Houston Center
Wed 07:20:53 AM 28.7833 -88.5911 281° West 425 489 40,000  Level Houston Center
Wed 07:21:53 AM 28.8050 -88.7233 279° West 425 489 40,000  Level Houston Center
Wed 07:22:53 AM 28.8247 -88.8603 280° West 425 489 40,000  Level Houston Center
Wed 07:23:53 AM 28.8461 -88.9925 279° West 430 495 40,000  Level Houston Center
Wed 07:24:53 AM 28.8653 -89.1297 280° West 430 495 40,000  Level Houston Center
Wed 07:25:53 AM 28.8867 -89.2619 279° West 430 495 40,000  Level Houston Center
Wed 07:26:53 AM 28.9056 -89.3992 280° West 430 495 40,000  Level Houston Center
Wed 07:27:53 AM 28.9264 -89.5294 279° West 430 495 40,000  Level Houston Center
Wed 07:28:53 AM 28.9453 -89.6644 280° West 430 495 40,000  Level Houston Center
Wed 07:29:53 AM 28.9658 -89.7992 279° West 430 495 40,000  Level Houston Center
Wed 07:30:53 AM 28.9844 -89.9294 280° West 425 489 40,000  Level Houston Center
Wed 07:31:53 AM 29.0047 -90.0622 279° West 433 498 40,000  Level Houston Center
Wed 07:32:53 AM 29.0208 -90.1808 280° West 428 493 40,000  Level Houston Center
Wed 07:33:53 AM 29.0408 -90.3136 279° West 428 493 40,000  Level Houston Center
Wed 07:34:53 AM 29.0589 -90.4464 279° West 428 493 40,000  Level Houston Center
Wed 07:35:53 AM 29.0767 -90.5817 279° West 428 493 40,000  Level Houston Center
Wed 07:36:53 AM 29.0964 -90.7172 279° West 428 493 40,000  Level Houston Center
Wed 07:37:53 AM 29.1142 -90.8525 280° West 428 493 40,000  Level Houston Center
Wed 07:38:53 AM 29.1336 -90.9856 280° West 428 493 40,000  Level Houston Center
Wed 07:39:53 AM 29.1531 -91.1164 279° West 428 493 40,000  Level Houston Center
Wed 07:40:53 AM 29.1722 -91.2519 278° West 428 493 40,000  Level Houston Center
Wed 07:41:53 AM 29.1872 -91.3825 279° West 428 493 40,000  Level Houston Center
Wed 07:42:53 AM 29.2061 -91.5206 279° West 428 493 40,000  Level Houston Center
Wed 07:43:53 AM 29.2250 -91.6564 279° West 428 493 40,000  Level Houston Center
Wed 07:44:53 AM 29.2439 -91.7872 278° West 428 493 40,000  Level Houston Center
Wed 07:45:53 AM 29.2603 -91.9231 279° West 428 493 40,000  Level Houston Center
Wed 07:46:53 AM 29.2808 -92.0756 279° West 428 493 40,000  Level Houston Center
Wed 07:47:53 AM 29.2972 -92.1969 278° West 428 493 40,000  Level Houston Center
Wed 07:48:53 AM 29.3133 -92.3306 278° West 428 493 40,000  Level Houston Center
Wed 07:49:53 AM 29.3314 -92.4714 278° West 433 498 40,000  Level Houston Center
Wed 07:50:53 AM 29.3472 -92.6050 279° West 433 498 40,000  Level Houston Center
Wed 07:51:53 AM 29.3650 -92.7386 277° West 433 498 40,000  Level Houston Center
Wed 07:52:53 AM 29.3806 -92.8769 278° West 433 498 40,000  Level Houston Center
Wed 07:53:53 AM 29.3981 -93.0156 277° West 433 498 40,000  Level Houston Center
Wed 07:54:53 AM 29.4133 -93.1517 278° West 427 491 40,000  Level Houston Center
Wed 07:55:53 AM 29.4306 -93.2853 277° West 427 491 40,000  Level Houston Center
Wed 07:56:54 AM 29.4456 -93.4264 278° West 427 491 40,000  Level Houston Center
Wed 07:57:53 AM 29.4625 -93.5603 278° West 427 491 40,000  Level Houston Center
Wed 07:58:53 AM 29.4792 -93.7061 278° West 427 491 40,000  Level Houston Center
Wed 07:59:53 AM 29.4958 -93.8400 278° West 427 491 40,000  Level Houston Center
Wed 08:00:53 AM 29.5122 -93.9789 277° West 427 491 40,000  Level Houston Center
Wed 08:01:53 AM 29.5267 -94.1131 278° West 427 491 40,000  Level Houston Center
Wed 08:02:53 AM 29.5431 -94.2447 278° West 422 486 40,000  Level Houston Center
Wed 08:03:53 AM 29.5592 -94.3764 277° West 422 486 40,000  Level Houston Center
Wed 08:04:53 AM 29.5731 -94.5153 279° West 429 494 40,000  Level Houston Center
Wed 08:05:53 AM 29.5911 -94.6472 278° West 429 494 40,000  Level Houston Center
Wed 08:06:53 AM 29.6069 -94.7836 278° West 429 494 40,000  Level Houston Center
Wed 08:07:53 AM 29.6225 -94.9156 279° West 429 494 40,000  Level Houston Center
Wed 08:08:53 AM 29.6367 -95.0236 277° West 429 494 40,000  Level Houston Center
Wed 08:09:53 AM 29.6553 -95.1939 278° West 442 509 40,000  Level Houston Center
Wed 08:10:53 AM 29.6725 -95.3283 276° West 442 509 40,000  Level Houston Center
Wed 08:11:53 AM 29.6836 -95.4553 277° West 449 517 40,000  Level Houston Center
Wed 08:12:53 AM 29.6986 -95.5897 277° West 436 502 40,000  Level Houston Center
Wed 08:13:53 AM 29.7136 -95.7242 278° West 431 496 40,000  Level Houston Center
Wed 08:14:53 AM 29.7303 -95.8589 277° West 431 496 40,000  Level Houston Center
Wed 08:15:53 AM 29.7447 -95.9958 278° West 431 496 40,000 -350 Level Houston Center
Wed 08:16:53 AM 29.7614 -96.1281 278° West 426 490 39,300 -1,400 Descending Houston Center
Wed 08:17:53 AM 29.7797 -96.2700 276° West 439 505 37,200 -2,200 Descending Houston Center
Wed 08:18:53 AM 29.7933 -96.4142 277° West 450 518 34,900 -2,300 Descending Houston Center
Wed 08:19:53 AM 29.8092 -96.5583 275° West 450 518 32,600 -2,300 Descending Houston Center
Wed 08:20:53 AM 29.8206 -96.7050 273° West 455 524 30,300 -2,250 Descending Houston Center
Wed 08:21:53 AM 29.8275 -96.8511 276° West 466 536 28,100 -2,250 Descending Houston Center
Wed 08:22:53 AM 29.8406 -97.0003 273° West 466 536 25,800 -2,281 Descending Houston Center
Wed 08:23:54 AM 29.8472 -97.1467 276° West 466 536 23,500 -2,300 Descending Houston Center
Wed 08:24:53 AM 29.8600 -97.2933 274° West 466 536 21,200 -2,367 Descending Houston Center
Wed 08:25:43 AM 29.8689 -97.4278 273° West 458 527 19,200 -2,400 Descending Houston Center
Wed 08:26:13 AM 29.8719 -97.5022 276° West 453 521 18,000 -2,113 Descending Houston Center
Wed 08:26:54 AM 29.8806 -97.5911 274° West 455 524 16,700 -2,040 Descending Houston Center
Wed 08:27:53 AM 29.8875 -97.7208 274° West 426 490 14,600 -1,815 Descending Houston Center
Wed 08:28:53 AM 29.8961 -97.8531 248° West 418 481 13,100 -1,650 Descending Houston Center
Wed 08:29:53 AM 29.8553 -97.9678 243° Southwest 383 441 11,300 -1,884 Descending Houston Center
Wed 08:30:54 AM 29.8111 -98.0681 244° Southwest 371 427 9,300 -2,050 Descending Houston Center
Wed 08:31:53 AM 29.7733 -98.1567 244° Southwest 330 380 7,200 -1,100 Descending Houston Center
Wed 08:32:54 AM 29.7403 -98.2358 245° Southwest 294 338 7,100 -50 Descending Houston Center
Wed 08:33:53 AM 29.7119 -98.3056 242° Southwest 249 287 7,100  Level Houston Center
Wed 08:34:53 AM 29.6814 -98.3731 245° Southwest 249 287 7,100  Level Houston Center
Wed 08:35:53 AM 29.6531 -98.4428 294° West 244 281 7,100 -200 Level Houston Center
Wed 08:36:53 AM 29.6789 -98.5089 302° West 215 247 6,700 -700 Descending Houston Center
Wed 08:37:53 AM 29.7094 -98.5658 254° West 228 262 5,700 -1,091 Descending Houston Center
Wed 08:38:54 AM 29.6936 -98.6292 169° South 183 211 4,500 -1,240 Descending Houston Center
Wed 08:39:54 AM 29.6483 -98.6192 136° Southeast 164 189 3,200 -805 Descending Houston Center
Wed 08:41:23 AM 29.5969 -98.5631 130° Southeast 166 191 2,500 -577 Descending Houston Center
Wed 08:42:30 AM 29.5675 -98.5231 134° Southeast 139 160 1,700 -709 Descending Houston Center
Wed 08:43:30 AM 29.5419 -98.4928 134° Southeast 129 148 1,000 -700 Descending Houston Center

Login

Don't have an account? Register now (free) for customized features, flight alerts, and more!